Time;durP1;ratioP1;P1;durP2;ratioP2;P2;SDS_P1;SDS_P2;PMS_P1;PMS_P2;Temp;Humidity;BMP_temperature;BMP_pressure;BME280_temperature;BME280_humidity;BME280_pressure;Samples;Min_cycle;Max_cycle;Signal;HPM_P1;HPM_P2
2022/05/15 00:00:44;;;;;;;13.38;4.65;;;11.30;98.80;;;;;;4234731;28;20051;-83
2022/05/15 00:02:45;;;;;;;15.25;3.97;;;11.30;98.90;;;;;;4237955;28;20048;-83
2022/05/15 00:04:49;;;;;;;17.23;4.47;;;11.20;99.00;;;;;;4220286;28;20039;-83
2022/05/15 00:06:51;;;;;;;14.70;4.07;;;11.20;99.10;;;;;;4242575;28;20039;-83
2022/05/15 00:08:53;;;;;;;16.27;4.95;;;11.40;99.20;;;;;;4242269;28;20050;-83
2022/05/15 00:10:56;;;;;;;16.63;4.80;;;11.20;99.10;;;;;;4241217;28;20635;-83
2022/05/15 00:12:57;;;;;;;12.88;4.05;;;11.30;99.10;;;;;;4222465;28;20075;-83
2022/05/15 00:14:58;;;;;;;12.57;3.50;;;11.30;99.20;;;;;;4205574;28;20078;-84
2022/05/15 00:16:59;;;;;;;8.43;3.10;;;11.10;99.10;;;;;;4206365;28;20448;-83
2022/05/15 00:19:00;;;;;;;11.98;3.30;;;11.00;99.10;;;;;;4241454;28;20039;-84
2022/05/15 00:21:02;;;;;;;14.63;4.50;;;11.00;99.20;;;;;;4241921;28;20057;-84
2022/05/15 00:23:03;;;;;;;12.80;3.42;;;10.90;99.20;;;;;;4241428;28;20043;-83
2022/05/15 00:25:04;;;;;;;14.65;3.45;;;10.90;99.30;;;;;;4242969;28;20396;-83
2022/05/15 00:27:15;;;;;;;10.00;3.50;;;10.80;99.20;;;;;;4224365;28;20087;-84
2022/05/15 00:29:16;;;;;;;9.93;3.55;;;10.80;99.40;;;;;;4223739;28;20047;-83
2022/05/15 00:31:19;;;;;;;14.82;3.65;;;10.80;99.30;;;;;;4239667;28;20051;-83
2022/05/15 00:33:20;;;;;;;16.02;4.57;;;10.80;99.30;;;;;;4223268;28;20127;-83
2022/05/15 00:35:22;;;;;;;6.00;2.67;;;10.80;99.30;;;;;;4205298;28;20054;-83
2022/05/15 00:37:23;;;;;;;6.80;2.70;;;10.70;99.50;;;;;;4238801;28;20043;-83
2022/05/15 00:39:24;;;;;;;4.97;2.58;;;10.70;99.60;;;;;;4238901;28;20123;-83
2022/05/15 00:41:26;;;;;;;10.93;3.75;;;11.00;99.60;;;;;;4239541;28;20036;-83
2022/05/15 00:43:49;;;;;;;5.70;2.17;;;10.60;99.70;;;;;;4238519;28;20054;-84
2022/05/15 00:45:49;;;;;;;11.95;2.80;;;10.50;99.50;;;;;;4238476;28;20043;-83
2022/05/15 00:47:51;;;;;;;10.13;2.42;;;10.50;99.70;;;;;;4239015;28;20081;-83
2022/05/15 00:49:53;;;;;;;11.43;4.93;;;10.50;99.70;;;;;;4236785;28;20043;-83
2022/05/15 00:52:08;;;;;;;9.73;3.00;;;10.40;99.80;;;;;;4235154;28;20044;-83
2022/05/15 00:54:26;;;;;;;9.15;2.97;;;10.40;99.90;;;;;;4236786;28;20120;-84
2022/05/15 00:56:31;;;;;;;12.75;3.38;;;10.40;99.90;;;;;;4217769;28;20060;-83
2022/05/15 00:58:37;;;;;;;15.40;3.67;;;10.30;99.90;;;;;;4236621;28;20044;-83
2022/05/15 01:00:40;;;;;;;11.15;3.28;;;10.30;99.90;;;;;;4237185;28;20133;-83
2022/05/15 01:02:44;;;;;;;8.93;2.25;;;9.50;99.70;;;;;;4236902;28;20035;-83
2022/05/15 01:04:46;;;;;;;4.82;2.20;;;10.20;99.90;;;;;;4218480;28;20435;-83
2022/05/15 01:06:47;;;;;;;5.03;1.70;;;10.20;99.90;;;;;;4217671;28;20047;-84
2022/05/15 01:08:47;;;;;;;6.40;1.95;;;10.10;99.90;;;;;;4237866;28;20048;-83
2022/05/15 01:10:53;;;;;;;7.47;1.92;;;10.10;99.90;;;;;;4236126;28;20048;-83
2022/05/15 01:12:57;;;;;;;5.65;1.70;;;10.00;99.90;;;;;;4234054;28;20051;-84
2022/05/15 01:14:57;;;;;;;3.13;1.40;;;9.90;99.90;;;;;;4235320;28;20088;-84
2022/05/15 01:16:59;;;;;;;7.32;1.30;;;9.90;99.90;;;;;;4216339;28;20106;-84
2022/05/15 01:19:03;;;;;;;2.05;0.90;;;9.90;99.90;;;;;;4234702;28;20108;-84
2022/05/15 01:21:24;;;;;;;2.67;0.90;;;9.90;99.90;;;;;;4235076;28;20141;-84
2022/05/15 01:23:25;;;;;;;1.50;0.82;;;9.80;99.90;;;;;;4223473;28;20054;-83
2022/05/15 01:25:29;;;;;;;3.65;1.00;;;9.90;99.90;;;;;;4233142;28;20035;-83
2022/05/15 01:27:30;;;;;;;1.00;0.90;;;9.70;99.90;;;;;;4234294;28;20055;-84
2022/05/15 01:29:36;;;;;;;1.42;0.98;;;9.60;99.90;;;;;;4232109;28;20035;-84
2022/05/15 01:31:38;;;;;;;2.28;1.00;;;9.60;99.90;;;;;;4232493;28;20092;-84
2022/05/15 01:33:39;;;;;;;5.13;1.25;;;9.50;99.90;;;;;;4213053;28;20158;-84
2022/05/15 01:35:40;;;;;;;4.03;1.38;;;10.00;99.90;;;;;;4232081;28;20044;-83
2022/05/15 01:37:41;;;;;;;2.05;1.38;;;9.30;99.90;;;;;;4233059;28;20047;-84
2022/05/15 01:39:42;;;;;;;1.83;1.30;;;10.40;99.90;;;;;;4234485;28;20031;-84
2022/05/15 01:41:44;;;;;;;1.83;1.33;;;10.10;99.90;;;;;;4234149;28;20441;-84
2022/05/15 01:43:47;;;;;;;1.73;1.25;;;9.30;99.90;;;;;;4232991;28;20048;-84
2022/05/15 01:45:47;;;;;;;2.30;0.95;;;9.40;99.90;;;;;;4236087;28;20082;-83
2022/05/15 01:47:49;;;;;;;3.05;1.17;;;9.40;99.90;;;;;;4232934;28;20056;-83
2022/05/15 01:49:50;;;;;;;2.45;1.20;;;9.00;99.90;;;;;;4233423;28;20082;-83
2022/05/15 01:51:51;;;;;;;3.92;1.40;;;9.00;99.90;;;;;;4232366;28;20043;-83
2022/05/15 01:53:52;;;;;;;1.67;1.25;;;9.10;99.90;;;;;;4231964;28;20535;-83
2022/05/15 01:55:52;;;;;;;2.45;1.33;;;9.80;99.90;;;;;;4232276;28;20047;-83
2022/05/15 01:57:53;;;;;;;5.43;2.83;;;10.30;99.90;;;;;;4232957;28;20092;-83
2022/05/15 01:59:54;;;;;;;4.68;1.73;;;9.80;99.90;;;;;;4233256;28;20036;-83
2022/05/15 02:01:55;;;;;;;7.57;1.73;;;9.00;99.90;;;;;;4214664;28;20051;-83
2022/05/15 02:03:55;;;;;;;6.00;1.65;;;9.80;99.90;;;;;;4232518;28;20057;-83
2022/05/15 02:05:56;;;;;;;5.40;1.77;;;9.30;99.90;;;;;;4231553;28;20051;-83
2022/05/15 02:07:58;;;;;;;5.57;1.92;;;9.10;99.90;;;;;;4231501;28;20135;-83
2022/05/15 02:09:59;;;;;;;5.53;1.85;;;9.20;99.90;;;;;;4231546;28;20107;-83
2022/05/15 02:12:00;;;;;;;6.72;2.55;;;8.70;99.90;;;;;;4232034;28;20391;-82
2022/05/15 02:14:01;;;;;;;3.60;1.60;;;9.00;99.90;;;;;;4235436;28;20035;-83
2022/05/15 02:16:02;;;;;;;3.83;2.33;;;9.50;99.90;;;;;;4235373;28;20048;-83
2022/05/15 02:18:04;;;;;;;6.55;2.13;;;9.10;99.90;;;;;;4235640;28;20048;-83
2022/05/15 02:20:06;;;;;;;5.85;2.42;;;9.00;99.90;;;;;;4235410;28;20052;-83
2022/05/15 02:22:07;;;;;;;5.57;1.63;;;9.00;99.90;;;;;;4235907;28;20380;-83
2022/05/15 02:24:08;;;;;;;2.28;1.70;;;9.30;99.90;;;;;;4235740;28;20063;-83
2022/05/15 02:26:09;;;;;;;4.15;1.50;;;9.00;99.90;;;;;;4235715;28;20065;-83
2022/05/15 02:28:10;;;;;;;2.83;1.30;;;9.40;99.90;;;;;;4236768;28;20403;-83
2022/05/15 02:30:12;;;;;;;4.05;1.58;;;8.90;99.90;;;;;;4217785;28;20051;-83
2022/05/15 02:32:14;;;;;;;4.40;1.65;;;8.90;99.90;;;;;;4236598;28;20043;-84
2022/05/15 02:34:14;;;;;;;3.33;1.50;;;9.30;99.90;;;;;;4235991;28;20046;-83
2022/05/15 02:36:15;;;;;;;4.40;1.80;;;8.90;99.90;;;;;;4237032;28;20146;-83
2022/05/15 02:38:16;;;;;;;3.45;1.58;;;7.80;99.90;;;;;;4235401;28;20051;-83
2022/05/15 02:40:21;;;;;;;4.97;1.40;;;9.40;99.90;;;;;;4217996;28;20108;-83
2022/05/15 02:42:22;;;;;;;3.10;1.95;;;8.80;99.90;;;;;;4236164;28;20108;-83
2022/05/15 02:44:22;;;;;;;6.15;1.90;;;9.30;99.90;;;;;;4235654;28;20032;-83
2022/05/15 02:46:23;;;;;;;7.28;2.08;;;8.80;99.90;;;;;;4234541;28;20043;-82
2022/05/15 02:53:04;;;;;;;4.30;1.88;;;9.50;99.90;;;;;;4234489;28;20047;-84
2022/05/15 02:55:05;;;;;;;4.25;2.10;;;8.60;99.90;;;;;;4234009;28;20067;-83
2022/05/15 02:57:07;;;;;;;6.57;1.75;;;8.60;99.90;;;;;;4234681;28;20043;-83
2022/05/15 02:59:09;;;;;;;6.28;1.70;;;9.60;99.90;;;;;;4233991;28;20083;-83
2022/05/15 03:01:11;;;;;;;4.15;1.42;;;9.30;99.90;;;;;;4234586;28;20123;-83
2022/05/15 03:03:11;;;;;;;3.33;1.25;;;9.60;99.90;;;;;;4234032;27;20419;-83
2022/05/15 03:05:14;;;;;;;2.65;1.00;;;8.90;99.90;;;;;;4216638;28;20047;-83
2022/05/15 03:07:16;;;;;;;3.03;1.17;;;8.50;99.90;;;;;;4235409;28;20043;-83
2022/05/15 03:09:17;;;;;;;1.20;0.50;;;8.70;99.90;;;;;;4235058;28;20062;-82
2022/05/15 03:11:19;;;;;;;0.85;0.65;;;9.20;99.90;;;;;;4234688;28;20070;-83
2022/05/15 03:13:20;;;;;;;1.77;0.80;;;8.80;99.90;;;;;;4234209;28;20065;-83
2022/05/15 03:15:21;;;;;;;0.80;0.70;;;8.40;99.90;;;;;;4234573;28;20048;-83
2022/05/15 03:17:22;;;;;;;1.40;0.80;;;8.30;99.90;;;;;;4234955;28;20483;-83
2022/05/15 03:19:23;;;;;;;2.38;1.00;;;8.30;99.90;;;;;;4235455;28;20047;-83
2022/05/15 03:21:29;;;;;;;2.47;1.15;;;8.30;99.90;;;;;;4234990;28;20047;-83
2022/05/15 03:23:30;;;;;;;1.00;0.70;;;8.60;99.90;;;;;;4234507;28;20043;-83
2022/05/15 03:25:33;;;;;;;2.05;1.05;;;8.30;99.90;;;;;;4233947;28;20051;-83
2022/05/15 03:27:33;;;;;;;5.35;1.83;;;8.50;99.90;;;;;;4234470;28;20035;-83
2022/05/15 03:29:35;;;;;;;3.30;0.95;;;8.40;99.90;;;;;;4234093;28;20047;-83
2022/05/15 03:31:36;;;;;;;2.90;0.88;;;8.20;99.90;;;;;;4235131;28;20047;-83
2022/05/15 03:33:38;;;;;;;3.88;0.90;;;8.90;99.90;;;;;;4234928;28;20044;-83
2022/05/15 03:35:39;;;;;;;2.90;1.30;;;8.20;99.90;;;;;;4233745;28;20141;-84
2022/05/15 03:37:41;;;;;;;3.35;1.30;;;8.20;99.90;;;;;;4235418;28;20102;-83
2022/05/15 03:39:41;;;;;;;2.88;1.05;;;8.40;99.90;;;;;;4216136;28;20044;-83
2022/05/15 03:41:42;;;;;;;5.40;1.92;;;8.20;99.90;;;;;;4234502;28;20039;-83
2022/05/15 03:43:43;;;;;;;4.72;1.05;;;8.10;99.90;;;;;;4234864;28;20047;-83
2022/05/15 03:45:44;;;;;;;4.72;1.23;;;8.10;99.90;;;;;;4215791;28;20539;-83
2022/05/15 03:47:47;;;;;;;6.63;1.33;;;8.30;99.90;;;;;;4234292;28;20043;-83
2022/05/15 03:49:48;;;;;;;4.55;0.95;;;8.10;99.90;;;;;;4234254;28;20493;-83
2022/05/15 03:51:50;;;;;;;3.22;1.52;;;8.00;99.90;;;;;;4234383;28;20511;-83
2022/05/15 03:53:51;;;;;;;4.78;1.60;;;8.00;99.90;;;;;;4234593;28;20395;-84
2022/05/15 03:55:55;;;;;;;3.35;1.30;;;8.60;99.90;;;;;;4235347;28;20086;-84
2022/05/15 03:57:56;;;;;;;3.80;1.17;;;8.00;99.90;;;;;;4236203;28;20443;-84
2022/05/15 03:59:58;;;;;;;3.13;1.30;;;7.90;99.90;;;;;;4235814;28;20036;-84
2022/05/15 04:02:00;;;;;;;2.58;1.17;;;8.00;99.90;;;;;;4234730;28;20051;-84
2022/05/15 04:04:03;;;;;;;4.28;1.83;;;7.90;99.90;;;;;;4235157;28;20036;-84
2022/05/15 04:06:05;;;;;;;3.05;1.50;;;7.90;99.90;;;;;;4235808;28;20127;-83
2022/05/15 04:08:06;;;;;;;2.53;1.42;;;9.00;99.90;;;;;;4218443;28;20083;-82
2022/05/15 04:10:07;;;;;;;4.63;1.42;;;7.90;99.90;;;;;;4237557;28;20080;-83
2022/05/15 04:12:09;;;;;;;3.35;1.58;;;7.90;99.90;;;;;;4219639;28;20064;-83
2022/05/15 04:14:10;;;;;;;2.05;1.23;;;7.90;99.90;;;;;;4218895;28;20130;-83
2022/05/15 04:16:11;;;;;;;4.28;1.40;;;7.90;99.90;;;;;;4238402;28;20039;-83
2022/05/15 04:18:11;;;;;;;2.38;1.23;;;7.80;99.90;;;;;;4238592;28;20119;-82
2022/05/15 04:20:15;;;;;;;3.97;1.30;;;8.00;99.90;;;;;;4238149;28;20055;-83
2022/05/15 04:22:18;;;;;;;2.30;1.20;;;7.80;99.90;;;;;;4237284;28;20034;-83
2022/05/15 04:24:19;;;;;;;2.35;1.10;;;7.80;99.90;;;;;;4238907;28;20051;-83
2022/05/15 04:26:22;;;;;;;3.03;1.40;;;7.80;99.90;;;;;;4239086;28;20043;-82
2022/05/15 04:28:24;;;;;;;2.78;1.45;;;8.50;99.90;;;;;;4239821;28;20460;-83
2022/05/15 04:30:26;;;;;;;3.63;1.67;;;7.80;99.90;;;;;;4237216;28;20072;-83
2022/05/15 04:32:28;;;;;;;2.60;1.50;;;7.90;99.90;;;;;;4237692;28;20039;-83
2022/05/15 04:34:30;;;;;;;4.13;1.92;;;7.80;99.90;;;;;;4237645;28;20058;-83
2022/05/15 04:36:33;;;;;;;2.55;1.35;;;7.80;99.90;;;;;;4236113;28;20421;-83
2022/05/15 04:38:33;;;;;;;5.65;1.65;;;7.80;99.90;;;;;;4217848;28;20144;-83
2022/05/15 04:40:34;;;;;;;3.40;1.77;;;8.50;99.90;;;;;;4236601;28;20043;-83
2022/05/15 04:42:35;;;;;;;4.03;1.45;;;8.80;99.90;;;;;;4237489;28;20040;-83
2022/05/15 04:44:36;;;;;;;4.10;1.42;;;7.80;99.90;;;;;;4238104;28;20039;-83
2022/05/15 04:46:38;;;;;;;3.90;1.30;;;8.10;99.90;;;;;;4238325;28;20050;-82
2022/05/15 04:48:40;;;;;;;1.65;1.20;;;7.90;99.90;;;;;;4241590;28;20051;-82
2022/05/15 04:50:41;;;;;;;2.67;1.50;;;8.00;99.90;;;;;;4243300;28;20432;-82
2022/05/15 04:52:41;;;;;;;3.30;1.25;;;8.00;99.90;;;;;;4244207;28;20080;-83
2022/05/15 04:54:42;;;;;;;2.08;1.20;;;8.00;99.90;;;;;;4243888;28;20039;-83
2022/05/15 04:56:43;;;;;;;4.13;1.83;;;8.00;99.90;;;;;;4243637;28;20069;-83
2022/05/15 04:58:44;;;;;;;3.28;1.42;;;8.40;99.90;;;;;;4244009;28;20051;-83
2022/05/15 05:00:45;;;;;;;4.45;1.92;;;8.10;99.90;;;;;;4227603;28;20054;-84
2022/05/15 05:02:46;;;;;;;3.25;1.40;;;8.20;99.90;;;;;;4246348;27;20054;-83
2022/05/15 05:04:48;;;;;;;7.38;2.35;;;8.30;99.90;;;;;;4228817;28;20040;-83
2022/05/15 05:06:51;;;;;;;7.97;1.90;;;8.40;99.90;;;;;;4228664;28;20058;-83
2022/05/15 05:08:53;;;;;;;6.82;2.20;;;8.40;99.90;;;;;;4246367;28;20039;-83
2022/05/15 05:10:54;;;;;;;15.32;3.42;;;8.60;99.90;;;;;;4244840;28;20136;-82
2022/05/15 05:12:58;;;;;;;8.15;2.97;;;9.40;99.90;;;;;;4246608;28;20546;-83
2022/05/15 05:14:58;;;;;;;6.82;2.08;;;10.00;99.90;;;;;;4247417;28;20100;-83
2022/05/15 05:17:00;;;;;;;10.18;3.33;;;10.00;99.90;;;;;;4247457;28;20055;-82
2022/05/15 05:19:03;;;;;;;14.38;3.22;;;9.70;99.90;;;;;;4247112;28;20042;-83
2022/05/15 05:21:10;;;;;;;10.82;2.38;;;8.40;99.90;;;;;;4247274;28;20073;-83
2022/05/15 05:23:13;;;;;;;14.60;3.00;;;9.00;99.90;;;;;;4245651;28;20054;-83
2022/05/15 05:25:17;;;;;;;9.90;3.20;;;9.10;99.90;;;;;;4245679;28;20031;-83
2022/05/15 05:27:18;;;;;;;10.90;3.05;;;9.30;99.90;;;;;;4245663;28;20047;-83
2022/05/15 05:29:20;;;;;;;12.20;3.17;;;10.30;99.90;;;;;;4245832;28;20049;-83
2022/05/15 05:31:21;;;;;;;13.45;3.38;;;9.50;99.90;;;;;;4246201;28;20044;-83
2022/05/15 05:33:23;;;;;;;14.40;3.80;;;10.00;99.90;;;;;;4246060;28;20032;-83
2022/05/15 05:35:26;;;;;;;14.55;3.97;;;9.70;99.90;;;;;;4245642;28;20047;-83
2022/05/15 05:37:29;;;;;;;10.25;3.58;;;;;;;;;;4245277;28;20075;-83
2022/05/15 05:39:32;;;;;;;14.73;3.97;;;9.80;99.90;;;;;;4228780;28;20637;-83
2022/05/15 05:41:32;;;;;;;21.75;4.28;;;11.00;99.90;;;;;;4248300;28;20050;-83
2022/05/15 05:43:36;;;;;;;23.10;4.40;;;9.30;99.90;;;;;;4247457;28;20039;-83
2022/05/15 05:45:39;;;;;;;15.18;4.10;;;10.30;99.90;;;;;;4248328;28;20455;-82
2022/05/15 05:47:40;;;;;;;13.85;4.35;;;9.30;99.90;;;;;;4242888;28;20126;-83
2022/05/15 05:49:44;;;;;;;20.33;5.07;;;11.70;99.90;;;;;;4244292;28;20043;-82
2022/05/15 05:51:45;;;;;;;25.70;4.00;;;10.70;99.90;;;;;;4242170;28;20039;-83
2022/05/15 05:53:46;;;;;;;19.70;4.53;;;11.10;99.90;;;;;;4242809;28;20050;-83
2022/05/15 05:55:53;;;;;;;22.27;5.95;;;11.10;99.90;;;;;;4224736;28;20068;-83
2022/05/15 05:57:54;;;;;;;20.65;5.43;;;11.00;99.90;;;;;;4243551;28;20059;-83
2022/05/15 05:59:55;;;;;;;17.35;4.47;;;11.10;99.90;;;;;;4243704;28;20051;-83
2022/05/15 06:01:56;;;;;;;18.48;3.95;;;11.30;99.90;;;;;;4239283;28;20196;-83
2022/05/15 06:06:18;;;;;;;;;;;11.50;99.90;;;;;;4224476;28;20047;-84
2022/05/15 06:08:20;;;;;;;18.50;3.83;;;11.60;99.90;;;;;;4239616;28;19924;-84
2022/05/15 06:10:21;;;;;;;18.73;4.20;;;11.70;99.90;;;;;;4239659;28;20055;-83
2022/05/15 06:12:25;;;;;;;28.40;5.63;;;11.80;99.90;;;;;;4241494;28;20051;-83
2022/05/15 06:14:28;;;;;;;20.08;4.25;;;11.90;99.90;;;;;;4225820;28;20052;-83
2022/05/15 06:16:31;;;;;;;20.60;3.67;;;12.00;99.90;;;;;;4222921;28;20036;-83
2022/05/15 06:18:33;;;;;;;14.73;3.50;;;12.10;99.90;;;;;;4222789;28;20047;-84
2022/05/15 06:20:34;;;;;;;15.38;3.28;;;12.20;99.90;;;;;;4239458;28;20100;-84
2022/05/15 06:22:35;;;;;;;17.55;4.38;;;12.30;99.90;;;;;;4243364;28;20048;-84
2022/05/15 06:24:36;;;;;;;17.13;4.22;;;12.40;99.90;;;;;;4252413;28;20065;-84
2022/05/15 06:26:39;;;;;;;17.67;4.50;;;12.50;99.90;;;;;;4255831;28;20039;-84
2022/05/15 06:28:41;;;;;;;16.50;4.57;;;12.60;99.90;;;;;;4237067;28;20470;-83
2022/05/15 06:30:42;;;;;;;20.35;5.85;;;12.70;99.90;;;;;;4255366;28;20050;-83
2022/05/15 06:32:43;;;;;;;18.80;4.15;;;12.70;99.90;;;;;;4255511;28;20094;-82
2022/05/15 06:34:45;;;;;;;23.88;4.60;;;13.20;99.90;;;;;;4255264;28;20035;-83
2022/05/15 06:36:45;;;;;;;23.27;4.65;;;12.90;99.90;;;;;;4255043;28;20047;-83
2022/05/15 06:38:49;;;;;;;23.20;5.25;;;13.00;99.90;;;;;;4254220;28;20059;-83
2022/05/15 06:40:50;;;;;;;18.70;3.42;;;13.50;99.90;;;;;;4233732;28;20051;-83
2022/05/15 06:42:52;;;;;;;15.43;4.15;;;13.30;99.90;;;;;;4240435;28;20051;-83
2022/05/15 06:44:52;;;;;;;12.77;3.55;;;13.40;99.90;;;;;;4248650;28;20049;-83
2022/05/15 06:46:54;;;;;;;20.80;4.20;;;13.50;99.90;;;;;;4248932;28;20078;-84
2022/05/15 06:48:55;;;;;;;22.00;4.18;;;13.60;99.90;;;;;;4248020;28;20043;-84
2022/05/15 06:50:56;;;;;;;21.80;3.65;;;13.60;99.90;;;;;;4247905;28;20047;-83
2022/05/15 06:52:57;;;;;;;19.65;4.20;;;13.80;99.90;;;;;;4241215;28;20050;-83
2022/05/15 06:54:57;;;;;;;15.50;4.38;;;13.90;99.90;;;;;;4246988;28;20039;-83
2022/05/15 06:59:17;;;;;;;16.70;3.28;;;14.10;99.90;;;;;;4238171;27;20555;-83
2022/05/15 07:01:18;;;;;;;19.00;3.75;;;14.30;99.90;;;;;;4252386;27;20043;-84
2022/05/15 07:03:19;;;;;;;18.30;3.63;;;14.40;99.90;;;;;;4252859;27;20062;-84
2022/05/15 07:05:23;;;;;;;15.15;3.70;;;14.50;99.90;;;;;;4235000;28;20396;-84
2022/05/15 07:07:24;;;;;;;16.30;3.72;;;14.60;99.90;;;;;;4246598;27;20050;-85
2022/05/15 07:09:27;;;;;;;27.92;3.45;;;14.60;99.90;;;;;;4251974;27;20038;-84
2022/05/15 07:11:28;;;;;;;18.02;3.88;;;14.70;99.90;;;;;;4252780;27;20051;-84
2022/05/15 07:13:29;;;;;;;18.20;3.47;;;14.90;99.90;;;;;;4255716;27;20503;-84
2022/05/15 07:15:30;;;;;;;18.65;4.10;;;14.60;99.90;;;;;;4256878;27;20490;-83
2022/05/15 07:17:32;;;;;;;21.75;4.07;;;15.10;99.90;;;;;;4259263;27;20078;-84
2022/05/15 07:19:33;;;;;;;20.60;3.13;;;15.20;99.90;;;;;;4260036;27;20058;-84
2022/05/15 07:21:33;;;;;;;18.92;4.22;;;15.30;99.90;;;;;;4259111;27;20043;-84
2022/05/15 07:23:35;;;;;;;19.67;4.35;;;15.30;99.90;;;;;;4260702;27;20570;-83
2022/05/15 07:25:36;;;;;;;15.55;3.08;;;15.40;99.70;;;;;;4258091;27;20058;-83
2022/05/15 07:27:37;;;;;;;17.25;4.65;;;14.60;99.30;;;;;;4250835;27;20038;-83
2022/05/15 07:29:38;;;;;;;16.17;3.67;;;15.70;99.20;;;;;;4249812;27;20415;-83
2022/05/15 07:31:39;;;;;;;17.85;2.97;;;15.80;98.90;;;;;;4249701;27;20035;-83
2022/05/15 07:33:40;;;;;;;17.13;3.13;;;15.90;98.60;;;;;;4231411;28;20112;-84
2022/05/15 07:35:41;;;;;;;16.75;4.32;;;16.10;98.40;;;;;;4250115;27;20043;-83
2022/05/15 07:37:41;;;;;;;14.77;3.53;;;16.20;97.90;;;;;;4249914;27;20081;-83
2022/05/15 07:39:42;;;;;;;15.75;3.65;;;16.20;97.70;;;;;;4250079;27;20386;-84
2022/05/15 07:41:43;;;;;;;18.88;3.78;;;16.30;97.30;;;;;;4231777;28;20035;-84
2022/05/15 07:43:44;;;;;;;18.42;4.50;;;16.40;97.20;;;;;;4248127;27;20039;-84
2022/05/15 07:45:45;;;;;;;16.65;3.60;;;16.50;97.20;;;;;;4248810;27;20039;-84
2022/05/15 07:47:46;;;;;;;17.02;3.67;;;16.70;97.00;;;;;;4256285;27;20057;-83
2022/05/15 07:49:47;;;;;;;13.93;2.58;;;16.80;96.60;;;;;;4250487;27;20043;-84
2022/05/15 07:51:48;;;;;;;19.33;3.00;;;;;;;;;;4231187;28;20048;-84
2022/05/15 07:53:49;;;;;;;19.55;4.22;;;16.90;96.50;;;;;;4233849;27;20097;-86
2022/05/15 07:55:50;;;;;;;15.77;3.28;;;17.20;96.20;;;;;;4247680;27;20398;-85
2022/05/15 07:57:51;;;;;;;19.30;3.13;;;17.80;95.90;;;;;;4249280;27;20515;-84
2022/05/15 07:59:52;;;;;;;11.27;2.70;;;17.50;95.50;;;;;;4249368;27;20125;-85
2022/05/15 08:01:55;;;;;;;17.33;3.25;;;17.70;95.30;;;;;;4249361;27;20483;-85
2022/05/15 08:03:56;;;;;;;13.00;2.65;;;17.70;95.00;;;;;;4249080;27;20079;-85
2022/05/15 08:08:18;;;;;;;14.80;2.58;;;18.00;94.80;;;;;;4249146;27;20981;-85
2022/05/15 08:10:18;;;;;;;13.70;2.55;;;18.10;94.00;;;;;;4229562;28;20539;-84
2022/05/15 08:12:20;;;;;;;21.42;2.83;;;;;;;;;;4243638;27;20083;-85
2022/05/15 08:14:21;;;;;;;12.75;2.55;;;18.10;93.80;;;;;;4248953;27;20035;-84
2022/05/15 08:16:23;;;;;;;10.88;2.17;;;18.50;93.30;;;;;;4248714;27;20043;-85
2022/05/15 08:25:24;;;;;;;11.10;1.75;;;19.00;91.10;;;;;;4246869;27;20087;-85
2022/05/15 08:27:24;;;;;;;11.80;3.25;;;19.30;91.30;;;;;;4248345;27;20050;-85
2022/05/15 08:29:25;;;;;;;11.57;1.95;;;19.60;90.60;;;;;;4248631;27;20039;-84
2022/05/15 08:31:26;;;;;;;9.65;1.83;;;19.60;89.30;;;;;;4247987;27;20049;-84
2022/05/15 08:33:27;;;;;;;14.00;2.65;;;;;;;;;;4248114;27;20082;-84
2022/05/15 08:35:29;;;;;;;9.60;2.15;;;;;;;;;;4230328;28;20047;-85
2022/05/15 08:37:30;;;;;;;11.43;2.13;;;;;;;;;;4244058;27;20043;-84
2022/05/15 08:39:31;;;;;;;10.40;2.35;;;;;;;;;;4229854;28;20043;-85
2022/05/15 08:41:35;;;;;;;9.10;2.85;;;;;;;;;;4227987;28;20036;-85
2022/05/15 08:43:44;;;;;;;8.07;1.90;;;;;;;;;;4229020;28;20121;-84
2022/05/15 08:45:53;;;;;;;8.13;2.13;;;;;;;;;;4244753;27;20518;-85
2022/05/15 08:48:00;;;;;;;10.93;2.20;;;;;;;;;;4245486;27;20088;-85
2022/05/15 08:50:06;;;;;;;11.88;2.08;;;;;;;;;;4242931;27;20121;-84
2022/05/15 08:52:15;;;;;;;8.57;2.60;;;;;;;;;;4248138;27;20132;-85
2022/05/15 08:54:16;;;;;;;8.95;2.65;;;;;;;;;;4229723;28;20035;-85
2022/05/15 08:56:17;;;;;;;12.05;2.10;;;;;;;;;;4244104;27;20297;-85
2022/05/15 08:58:35;;;;;;;9.70;2.53;;;;;;;;;;4247966;27;20043;-85
2022/05/15 09:00:38;;;;;;;9.35;2.30;;;;;;;;;;4247071;27;20050;-85
2022/05/15 09:02:41;;;;;;;10.25;1.90;;;;;;;;;;4244667;27;20047;-85
2022/05/15 09:04:42;;;;;;;8.85;1.92;;;;;;;;;;4247185;27;20483;-85
2022/05/15 09:06:43;;;;;;;6.80;1.60;;;;;;;;;;4247994;27;20047;-84
2022/05/15 09:09:05;;;;;;;10.10;2.50;;;;;;;;;;4247936;27;20050;-84
2022/05/15 09:11:07;;;;;;;13.75;2.25;;;;;;;;;;4229878;28;20059;-84
2022/05/15 09:13:12;;;;;;;9.55;2.38;;;;;;;;;;4247530;27;20055;-84
2022/05/15 09:15:16;;;;;;;11.85;1.80;;;;;;;;;;4231234;28;20051;-85
2022/05/15 09:17:21;;;;;;;7.57;1.77;;;;;;;;;;4244421;27;20131;-86
2022/05/15 09:19:22;;;;;;;14.60;2.85;;;;;;;;;;4247038;27;20110;-85
2022/05/15 09:21:23;;;;;;;7.93;1.30;;;;;;;;;;4229394;28;20090;-85
2022/05/15 09:23:26;;;;;;;15.10;2.63;;;;;;;;;;4247981;27;20171;-85
2022/05/15 09:25:32;;;;;;;8.98;2.08;;;;;;;;;;4247602;27;20399;-85
2022/05/15 09:27:33;;;;;;;7.32;2.08;;;;;;;;;;4229263;28;20040;-85
2022/05/15 09:29:34;;;;;;;9.65;2.00;;;;;;;;;;4247894;27;20045;-85
2022/05/15 09:31:36;;;;;;;8.55;2.05;;;;;;;;;;4229667;28;20480;-85
2022/05/15 09:33:44;;;;;;;10.38;2.03;;;;;;;;;;4225767;28;20502;-85
2022/05/15 09:35:46;;;;;;;11.10;1.92;;;;;;;;;;4238831;27;20051;-85
2022/05/15 09:40:13;;;;;;;9.95;2.35;;;;;;;;;;4247428;27;20503;-84
2022/05/15 09:44:37;;;;;;;8.00;1.85;;;;;;;;;;4247885;27;20043;-85
2022/05/15 09:46:40;;;;;;;13.15;2.75;;;;;;;;;;4229361;28;20079;-85
2022/05/15 09:48:50;;;;;;;6.70;1.80;;;;;;;;;;4229399;28;20531;-85
2022/05/15 09:50:51;;;;;;;10.55;2.42;;;;;;;;;;4229490;28;20050;-85
2022/05/15 09:52:52;;;;;;;11.20;1.88;;;;;;;;;;4229614;28;20586;-84
2022/05/15 09:55:06;;;;;;;10.90;2.10;;;;;;;;;;4229369;28;20486;-85
2022/05/15 09:57:13;;;;;;;7.45;1.30;;;;;;;;;;4230125;28;20044;-85
2022/05/15 09:59:14;;;;;;;8.10;1.92;;;;;;;;;;4212818;28;20059;-84
2022/05/15 10:01:21;;;;;;;9.25;2.00;;;;;;;;;;4247454;28;20612;-85
2022/05/15 10:03:24;;;;;;;9.27;1.85;;;;;;;;;;4247720;28;20476;-85
2022/05/15 10:05:27;;;;;;;8.02;2.28;;;;;;;;;;4230220;28;20555;-85
2022/05/15 10:07:30;;;;;;;6.40;1.45;;;;;;;;;;4229393;28;20043;-84
2022/05/15 10:09:37;;;;;;;10.38;1.85;;;;;;;;;;4229982;28;20752;-84
2022/05/15 10:11:40;;;;;;;10.90;2.92;;;;;;;;;;4246341;28;20043;-85
2022/05/15 10:13:43;;;;;;;13.10;4.18;;;;;;;;;;4212258;28;20098;-86
2022/05/15 10:15:48;;;;;;;9.55;1.75;;;;;;;;;;4248132;28;20074;-86
2022/05/15 10:17:54;;;;;;;8.05;1.88;;;;;;;;;;4251426;28;20043;-85
2022/05/15 10:20:00;;;;;;;6.57;1.60;;;;;;;;;;4229403;28;20130;-84
2022/05/15 10:22:10;;;;;;;9.70;2.30;;;;;;;;;;4247467;28;20047;-83
2022/05/15 10:24:31;;;;;;;11.93;1.70;;;;;;;;;;4229471;28;20044;-84
2022/05/15 10:26:45;;;;;;;11.18;1.67;;;;;;;;;;4247339;28;20081;-83
2022/05/15 10:28:52;;;;;;;9.75;1.90;;;;;;;;;;4247818;28;20035;-84
2022/05/15 10:31:12;;;;;;;10.32;1.65;;;;;;;;;;4247809;28;20043;-83
2022/05/15 10:33:17;;;;;;;12.80;2.58;;;;;;;;;;4247941;27;20067;-83
2022/05/15 10:35:28;;;;;;;11.48;2.13;;;;;;;;;;4250842;27;20198;-84
2022/05/15 10:37:29;;;;;;;5.88;1.65;;;;;;;;;;4251073;27;20408;-83
2022/05/15 10:39:45;;;;;;;8.02;2.78;;;;;;;;;;4248141;27;20043;-83
2022/05/15 10:41:55;;;;;;;8.85;2.55;;;;;;;;;;4229341;28;20542;-84
2022/05/15 10:44:20;;;;;;;5.07;1.15;;;;;;;;;;4238738;27;20039;-84
2022/05/15 10:46:34;;;;;;;6.50;1.73;;;;;;;;;;4245498;27;20479;-84
2022/05/15 10:48:41;;;;;;;8.32;1.73;;;;;;;;;;4249876;27;20046;-84
2022/05/15 10:50:45;;;;;;;5.50;1.65;;;;;;;;;;4249722;27;20039;-85
2022/05/15 10:57:21;;;;;;;10.52;2.38;;;;;;;;;;4250448;27;20058;-84
2022/05/15 10:58:02;;;;;;;7.28;2.42;;;;;;;;;;4247890;27;20455;-83
2022/05/15 11:00:06;;;;;;;7.82;1.60;;;;;;;;;;4238854;27;20035;-84
2022/05/15 11:02:28;;;;;;;6.35;1.20;;;;;;;;;;4250205;27;20082;-84
2022/05/15 11:04:41;;;;;;;6.22;1.75;;;;;;;;;;4234926;27;20094;-84
2022/05/15 11:06:45;;;;;;;11.60;1.63;;;;;;;;;;4249656;27;20035;-84
2022/05/15 11:08:55;;;;;;;8.48;1.70;;;;;;;;;;4246004;27;20043;-83
2022/05/15 11:11:16;;;;;;;5.78;1.95;;;;;;;;;;4245043;27;20079;-84
2022/05/15 11:13:21;;;;;;;8.55;2.67;;;;;;;;;;4231577;28;20043;-83
2022/05/15 11:15:51;;;;;;;4.78;1.77;;;;;;;;;;4244219;27;20063;-84
2022/05/15 11:18:08;;;;;;;8.45;1.90;;;;;;;;;;4218000;28;20051;-84
2022/05/15 11:20:13;;;;;;;6.97;1.33;;;;;;;;;;4249208;27;20066;-83
2022/05/15 11:22:31;;;;;;;12.40;1.60;;;;;;;;;;4245925;27;20077;-84
2022/05/15 11:24:52;;;;;;;5.10;1.60;;;;;;;;;;4249343;27;20051;-83
2022/05/15 11:26:56;;;;;;;7.68;2.10;;;;;;;;;;4231015;28;20423;-84
2022/05/15 11:29:03;;;;;;;6.13;1.60;;;;;;;;;;4249193;27;20091;-84